Time;durP1;ratioP1;P1;durP2;ratioP2;P2;SDS_P1;SDS_P2;PMS_P1;PMS_P2;Temp;Humidity;BMP_temperature;BMP_pressure;BME280_temperature;BME280_humidity;BME280_pressure;Samples;Min_cycle;Max_cycle;Signal;HPM_P1;HPM_P2
2023/03/26 00:01:32;;;;;;;16.42;3.28;;;6.80;99.90;;;;;;4862432;29;20127;-73
2023/03/26 00:03:58;;;;;;;15.00;2.90;;;6.70;99.90;;;;;;4869247;29;20059;-73
2023/03/26 00:06:35;;;;;;;17.02;3.38;;;6.70;99.90;;;;;;4877341;29;20036;-73
2023/03/26 00:09:01;;;;;;;16.17;3.55;;;6.60;99.90;;;;;;4862643;29;20061;-73
2023/03/26 00:11:28;;;;;;;16.05;2.35;;;6.60;99.90;;;;;;4856785;29;20057;-73
2023/03/26 00:13:58;;;;;;;15.25;2.47;;;6.50;99.90;;;;;;4857392;29;20072;-73
2023/03/26 00:16:27;;;;;;;21.23;2.80;;;6.50;99.90;;;;;;4851615;29;20076;-73
2023/03/26 00:18:53;;;;;;;20.40;3.38;;;6.50;99.90;;;;;;4875031;29;20056;-73
2023/03/26 00:21:26;;;;;;;16.13;3.70;;;6.50;99.90;;;;;;4877545;29;20074;-73
2023/03/26 00:23:54;;;;;;;13.23;2.53;;;6.50;99.90;;;;;;4874471;29;20040;-73
2023/03/26 00:26:20;;;;;;;14.57;2.45;;;6.40;99.90;;;;;;4858178;29;20046;-73
2023/03/26 00:28:46;;;;;;;18.35;3.10;;;6.40;99.90;;;;;;4877836;29;20051;-73
2023/03/26 00:31:13;;;;;;;15.30;3.00;;;6.30;99.90;;;;;;4878008;29;20044;-73
2023/03/26 00:33:40;;;;;;;17.83;3.05;;;6.20;99.90;;;;;;4862852;29;20170;-73
2023/03/26 00:36:15;;;;;;;13.93;2.63;;;6.20;99.90;;;;;;4878279;29;20075;-73
2023/03/26 00:38:41;;;;;;;13.63;2.35;;;6.20;99.90;;;;;;4862626;29;20715;-73
2023/03/26 00:41:35;;;;;;;17.80;3.03;;;6.10;99.90;;;;;;4861231;29;20044;-73
2023/03/26 00:43:59;;;;;;;15.07;2.80;;;6.10;99.90;;;;;;4877186;29;20053;-73
2023/03/26 00:46:27;;;;;;;15.38;2.92;;;6.00;99.90;;;;;;4862070;29;20095;-73
2023/03/26 00:48:53;;;;;;;11.75;3.33;;;6.00;99.90;;;;;;4859115;29;20033;-73
2023/03/26 00:51:20;;;;;;;21.40;3.00;;;5.90;99.90;;;;;;4874486;29;20047;-73
2023/03/26 00:53:48;;;;;;;14.70;2.80;;;5.90;99.90;;;;;;4876841;29;20077;-73
2023/03/26 00:56:14;;;;;;;18.05;3.10;;;5.90;99.90;;;;;;4875199;29;20048;-73
2023/03/26 00:58:41;;;;;;;14.38;3.10;;;5.90;99.90;;;;;;4859930;29;20088;-73
2023/03/26 01:01:13;;;;;;;12.55;2.50;;;5.90;99.90;;;;;;4877835;29;20037;-73
2023/03/26 01:03:40;;;;;;;15.90;2.17;;;5.80;99.90;;;;;;4880351;29;20114;-73
2023/03/26 01:06:12;;;;;;;18.92;3.20;;;5.80;99.90;;;;;;4876828;29;20041;-73
2023/03/26 01:08:43;;;;;;;13.73;3.28;;;5.80;99.90;;;;;;4855049;29;20052;-73
2023/03/26 01:11:35;;;;;;;16.48;2.85;;;5.80;99.90;;;;;;4861534;29;20127;-73
2023/03/26 01:14:15;;;;;;;17.23;2.22;;;5.70;99.90;;;;;;4857634;29;20089;-73
2023/03/26 01:16:51;;;;;;;17.08;3.03;;;5.70;99.90;;;;;;4876567;29;20469;-73
2023/03/26 01:19:24;;;;;;;15.18;2.60;;;5.70;99.90;;;;;;4861566;29;20557;-73
2023/03/26 01:21:50;;;;;;;12.40;2.92;;;5.70;99.90;;;;;;4878184;29;20044;-73
2023/03/26 01:24:16;;;;;;;13.83;2.13;;;5.70;99.90;;;;;;4865186;29;20044;-73
2023/03/26 01:27:00;;;;;;;16.97;2.23;;;5.70;99.90;;;;;;4877418;29;20037;-73
2023/03/26 01:29:30;;;;;;;15.23;2.40;;;5.70;99.90;;;;;;4861839;29;20042;-73
2023/03/26 01:32:19;;;;;;;14.02;2.33;;;5.70;99.90;;;;;;4881111;29;20092;-73
2023/03/26 01:34:56;;;;;;;19.40;3.03;;;5.70;99.90;;;;;;4874173;29;20087;-73
2023/03/26 01:37:31;;;;;;;22.63;3.30;;;5.70;99.90;;;;;;4862048;29;20048;-73
2023/03/26 01:40:05;;;;;;;;;;;5.70;99.90;;;;;;4864394;29;20083;-73
2023/03/26 01:43:10;;;;;;;19.42;2.67;;;5.60;99.90;;;;;;4864662;29;19931;-74
2023/03/26 01:45:38;;;;;;;19.60;2.80;;;5.50;99.90;;;;;;4861692;29;20044;-73
2023/03/26 01:48:05;;;;;;;14.75;2.75;;;5.50;99.90;;;;;;4860215;29;20075;-73
2023/03/26 01:50:31;;;;;;;9.45;2.17;;;5.40;99.90;;;;;;4863784;29;20052;-73
2023/03/26 01:52:57;;;;;;;12.10;2.10;;;5.30;99.90;;;;;;4880175;29;20044;-73
2023/03/26 01:55:33;;;;;;;19.13;2.80;;;5.20;99.90;;;;;;4864543;29;20059;-73
2023/03/26 01:58:02;;;;;;;16.13;2.63;;;5.10;99.90;;;;;;4880121;29;20053;-73
2023/03/26 02:00:32;;;;;;;16.27;2.90;;;4.90;99.90;;;;;;4873174;29;20417;-73
2023/03/26 02:03:26;;;;;;;14.30;2.40;;;4.90;99.90;;;;;;4864692;29;20052;-73
2023/03/26 02:06:20;;;;;;;14.85;3.10;;;4.80;99.90;;;;;;4868451;29;20041;-73
2023/03/26 02:08:52;;;;;;;17.65;2.50;;;4.80;99.90;;;;;;4869988;29;20449;-73
2023/03/26 02:11:19;;;;;;;15.82;3.00;;;4.80;99.90;;;;;;4864534;29;20068;-73
2023/03/26 02:13:45;;;;;;;23.05;2.75;;;4.70;99.90;;;;;;4879752;29;20049;-73
2023/03/26 02:16:17;;;;;;;21.85;3.45;;;4.60;99.90;;;;;;4864339;29;20120;-73
2023/03/26 02:18:44;;;;;;;16.75;2.35;;;4.60;99.90;;;;;;4863138;29;20053;-73
2023/03/26 02:21:14;;;;;;;17.58;3.25;;;4.50;99.90;;;;;;4863842;29;20044;-73
2023/03/26 02:23:46;;;;;;;14.90;2.53;;;4.50;99.90;;;;;;4863541;29;20069;-73
2023/03/26 02:26:14;;;;;;;19.77;3.28;;;4.40;99.90;;;;;;4877398;29;20032;-73
2023/03/26 02:28:40;;;;;;;25.17;2.83;;;4.40;99.90;;;;;;4879083;29;20071;-73
2023/03/26 02:31:09;;;;;;;16.13;3.10;;;4.40;99.90;;;;;;4879771;29;20041;-73
2023/03/26 02:33:36;;;;;;;28.92;3.42;;;4.40;99.90;;;;;;4879413;29;20398;-72
2023/03/26 02:36:02;;;;;;;21.10;2.67;;;4.40;99.90;;;;;;4863563;29;20108;-73
2023/03/26 02:38:33;;;;;;;23.13;2.58;;;4.50;99.90;;;;;;4863544;29;20431;-73
2023/03/26 02:41:00;;;;;;;21.65;3.20;;;4.60;99.90;;;;;;4873197;29;20095;-73
2023/03/26 02:43:27;;;;;;;24.30;4.60;;;4.60;99.90;;;;;;4876998;29;20037;-73
2023/03/26 02:45:53;;;;;;;21.48;3.00;;;4.70;99.90;;;;;;4879107;29;20803;-73
2023/03/26 02:48:19;;;;;;;14.73;2.83;;;4.80;99.90;;;;;;4879134;29;20073;-73
2023/03/26 02:50:48;;;;;;;22.77;3.63;;;4.80;99.90;;;;;;4863492;29;20052;-73
2023/03/26 02:53:15;;;;;;;18.05;2.63;;;4.80;99.90;;;;;;4878902;29;20525;-73
2023/03/26 02:55:41;;;;;;;18.00;2.53;;;4.90;99.90;;;;;;4878126;29;20051;-73
2023/03/26 02:58:06;;;;;;;18.23;2.60;;;4.90;99.90;;;;;;4862759;29;20041;-73
2023/03/26 03:00:33;;;;;;;16.37;2.70;;;4.90;99.90;;;;;;4878986;29;20100;-73
2023/03/26 03:02:59;;;;;;;18.00;2.45;;;5.00;99.90;;;;;;4863114;29;20569;-73
2023/03/26 03:05:25;;;;;;;18.73;3.80;;;5.00;99.90;;;;;;4879885;29;20120;-73
2023/03/26 03:07:57;;;;;;;16.73;2.53;;;5.10;99.90;;;;;;4863163;29;20545;-73
2023/03/26 03:10:24;;;;;;;15.73;3.45;;;5.10;99.90;;;;;;4863158;29;20087;-73
2023/03/26 03:12:50;;;;;;;18.98;2.90;;;5.10;99.90;;;;;;4877590;29;20080;-73
2023/03/26 03:15:16;;;;;;;12.85;2.35;;;5.10;99.90;;;;;;4878542;29;20437;-73
2023/03/26 03:17:42;;;;;;;15.63;3.03;;;5.20;99.90;;;;;;4878606;29;20052;-73
2023/03/26 03:20:08;;;;;;;20.43;3.27;;;5.20;99.90;;;;;;4862372;29;20519;-73
2023/03/26 03:22:35;;;;;;;18.67;3.10;;;5.20;99.90;;;;;;4878375;29;20056;-73
2023/03/26 03:25:01;;;;;;;21.23;3.00;;;5.20;99.90;;;;;;4878132;29;20048;-73
2023/03/26 03:27:28;;;;;;;15.15;2.90;;;5.30;99.90;;;;;;4863232;29;20087;-73
2023/03/26 03:29:55;;;;;;;23.73;3.22;;;5.30;99.90;;;;;;4875762;29;20033;-73
2023/03/26 03:32:22;;;;;;;18.83;2.83;;;5.30;99.90;;;;;;4863136;29;20600;-73
2023/03/26 03:34:49;;;;;;;17.92;3.20;;;5.30;99.90;;;;;;4878961;29;20405;-73
2023/03/26 03:37:19;;;;;;;19.20;2.92;;;5.30;99.90;;;;;;4863488;29;20036;-73
2023/03/26 03:39:45;;;;;;;16.30;3.17;;;5.20;99.90;;;;;;4859878;29;20055;-73
2023/03/26 03:42:10;;;;;;;23.52;3.53;;;5.20;99.90;;;;;;4862321;29;20052;-73
2023/03/26 03:44:36;;;;;;;20.03;2.83;;;5.20;99.90;;;;;;4878154;29;20040;-73
2023/03/26 03:47:02;;;;;;;18.20;3.10;;;5.20;99.90;;;;;;4862633;29;20104;-73
2023/03/26 03:49:28;;;;;;;14.33;3.60;;;5.10;99.90;;;;;;4878528;29;20612;-73
2023/03/26 03:51:54;;;;;;;23.07;2.90;;;5.20;99.90;;;;;;4862444;29;20040;-73
2023/03/26 03:54:20;;;;;;;21.67;3.73;;;5.20;99.90;;;;;;4878211;29;20128;-73
2023/03/26 03:56:46;;;;;;;21.10;3.03;;;5.10;99.90;;;;;;4878239;29;20293;-73
2023/03/26 03:59:11;;;;;;;20.35;3.33;;;5.10;99.90;;;;;;4877740;29;20045;-73
2023/03/26 04:01:37;;;;;;;23.23;3.47;;;5.10;99.90;;;;;;4862117;29;20136;-73
2023/03/26 04:04:03;;;;;;;22.50;4.00;;;5.10;99.90;;;;;;4861923;29;20076;-73
2023/03/26 04:06:29;;;;;;;14.17;2.97;;;5.00;99.90;;;;;;4861497;29;20040;-73
2023/03/26 04:08:58;;;;;;;19.20;3.17;;;4.90;99.90;;;;;;4877804;29;20136;-73
2023/03/26 04:11:23;;;;;;;18.23;3.05;;;4.90;99.90;;;;;;4878156;29;20509;-73
2023/03/26 04:13:49;;;;;;;17.00;2.97;;;4.90;99.90;;;;;;4862394;29;20076;-73
2023/03/26 04:16:16;;;;;;;21.90;2.90;;;4.80;99.90;;;;;;4876498;29;20067;-73
2023/03/26 04:18:44;;;;;;;26.80;3.38;;;4.80;99.90;;;;;;4857247;29;20116;-73
2023/03/26 04:21:11;;;;;;;17.00;3.08;;;4.80;99.90;;;;;;4861917;29;20051;-73
2023/03/26 04:23:37;;;;;;;19.38;3.10;;;4.80;99.90;;;;;;4877677;29;20083;-73
2023/03/26 04:26:09;;;;;;;17.00;2.80;;;4.80;99.90;;;;;;4878302;29;20040;-73
2023/03/26 04:28:46;;;;;;;21.80;2.80;;;4.90;99.90;;;;;;4876487;29;20051;-73
2023/03/26 04:31:22;;;;;;;19.90;2.53;;;4.80;99.90;;;;;;4860243;29;20431;-73
2023/03/26 04:33:53;;;;;;;18.65;2.85;;;4.90;99.90;;;;;;4876411;29;20052;-73
2023/03/26 04:36:21;;;;;;;17.17;2.63;;;4.90;99.90;;;;;;4861623;29;20040;-73
2023/03/26 04:38:50;;;;;;;21.30;2.95;;;4.90;99.90;;;;;;4876975;29;20055;-73
2023/03/26 04:41:16;;;;;;;28.80;3.47;;;4.90;99.90;;;;;;4860173;29;20482;-73
2023/03/26 04:43:46;;;;;;;18.97;3.37;;;5.00;99.90;;;;;;4876137;29;20127;-73
2023/03/26 04:46:17;;;;;;;17.60;3.63;;;5.00;99.90;;;;;;4877452;29;20055;-73
2023/03/26 04:48:43;;;;;;;21.08;3.83;;;5.00;99.90;;;;;;4877240;29;20104;-73
2023/03/26 04:51:16;;;;;;;20.75;2.70;;;5.00;99.90;;;;;;4861630;29;20066;-73
2023/03/26 04:54:01;;;;;;;16.20;2.88;;;5.00;99.90;;;;;;4859825;29;20127;-73
2023/03/26 04:56:37;;;;;;;23.35;3.22;;;5.00;99.90;;;;;;4877368;29;20080;-73
2023/03/26 04:59:04;;;;;;;17.85;2.28;;;5.00;99.90;;;;;;4861226;29;20442;-73
2023/03/26 05:01:31;;;;;;;18.48;2.90;;;5.00;99.90;;;;;;4870526;29;20041;-73
2023/03/26 05:03:57;;;;;;;16.33;2.50;;;5.10;99.90;;;;;;4876971;29;20120;-73
2023/03/26 05:06:26;;;;;;;20.05;2.95;;;5.10;99.90;;;;;;4863387;29;20501;-73
2023/03/26 05:08:53;;;;;;;20.00;3.25;;;5.10;99.90;;;;;;4876853;29;20049;-73
2023/03/26 05:11:19;;;;;;;14.32;2.63;;;5.10;99.90;;;;;;4865409;29;20134;-73
2023/03/26 05:13:45;;;;;;;14.23;2.70;;;5.10;99.90;;;;;;4879466;29;20045;-73
2023/03/26 05:16:12;;;;;;;17.90;2.65;;;5.10;99.90;;;;;;4881168;29;20744;-73
2023/03/26 05:18:38;;;;;;;18.23;2.72;;;5.20;99.90;;;;;;4881012;29;20132;-73
2023/03/26 05:21:04;;;;;;;17.80;3.65;;;5.20;99.90;;;;;;4865543;29;20501;-73
2023/03/26 05:23:30;;;;;;;16.58;2.95;;;5.20;99.90;;;;;;4864678;29;20052;-73
2023/03/26 05:25:55;;;;;;;16.23;2.93;;;5.20;99.90;;;;;;4864649;29;20486;-73
2023/03/26 05:28:23;;;;;;;16.60;2.27;;;5.20;99.90;;;;;;4864686;29;20059;-73
2023/03/26 05:30:51;;;;;;;19.38;2.92;;;5.20;99.90;;;;;;4878063;29;20124;-73
2023/03/26 05:33:18;;;;;;;23.85;3.30;;;5.20;99.90;;;;;;4877316;29;20100;-73
2023/03/26 05:35:44;;;;;;;23.83;3.05;;;5.20;99.90;;;;;;4864024;29;20541;-73
2023/03/26 05:38:10;;;;;;;20.88;2.75;;;5.20;99.90;;;;;;4895949;29;20493;-73
2023/03/26 05:40:36;;;;;;;17.53;2.40;;;5.20;99.90;;;;;;4864695;29;20049;-73
2023/03/26 05:43:02;;;;;;;14.52;2.55;;;5.20;99.90;;;;;;4879371;29;20104;-73
2023/03/26 05:45:28;;;;;;;18.98;2.58;;;5.20;99.90;;;;;;4879270;29;20048;-73
2023/03/26 05:47:55;;;;;;;25.50;2.73;;;5.20;99.90;;;;;;4865035;29;20044;-73
2023/03/26 05:50:21;;;;;;;19.50;3.28;;;5.20;99.90;;;;;;4859286;29;20037;-73
2023/03/26 05:52:47;;;;;;;19.73;3.28;;;5.20;99.90;;;;;;4879734;29;20040;-73
2023/03/26 05:55:13;;;;;;;17.97;3.17;;;5.30;99.90;;;;;;4864890;29;20049;-73
2023/03/26 05:57:39;;;;;;;15.77;2.90;;;5.30;99.90;;;;;;4880256;29;20080;-73
2023/03/26 06:00:07;;;;;;;20.40;2.50;;;5.30;99.90;;;;;;4878888;29;20043;-73
2023/03/26 06:02:34;;;;;;;19.45;2.13;;;5.30;99.90;;;;;;4880252;29;20045;-73
2023/03/26 06:05:01;;;;;;;13.95;2.28;;;5.30;99.90;;;;;;4879650;29;20043;-73
2023/03/26 06:07:27;;;;;;;13.23;2.15;;;5.30;99.90;;;;;;4882458;29;20589;-73
2023/03/26 06:09:53;;;;;;;12.87;2.23;;;5.30;99.90;;;;;;4882980;29;20193;-73
2023/03/26 06:12:19;;;;;;;16.00;2.30;;;5.30;99.90;;;;;;4861627;29;20486;-73
2023/03/26 06:14:46;;;;;;;13.10;2.47;;;5.30;99.90;;;;;;4863968;29;20405;-73
2023/03/26 06:17:12;;;;;;;14.30;2.15;;;5.30;99.90;;;;;;4878836;29;20060;-73
2023/03/26 06:19:37;;;;;;;16.33;2.30;;;5.30;99.90;;;;;;4864504;29;20052;-73
2023/03/26 06:22:04;;;;;;;12.23;2.00;;;5.30;99.90;;;;;;4878691;29;20123;-73
2023/03/26 06:24:30;;;;;;;16.92;3.45;;;5.30;99.90;;;;;;4872751;29;20041;-73
2023/03/26 06:26:56;;;;;;;17.67;3.23;;;5.40;99.90;;;;;;4862488;29;20052;-71
2023/03/26 06:29:21;;;;;;;25.00;3.30;;;5.40;99.90;;;;;;4863319;29;20047;-71
2023/03/26 06:31:47;;;;;;;22.67;3.13;;;5.40;99.90;;;;;;4882131;29;20044;-72
2023/03/26 06:34:13;;;;;;;13.40;2.53;;;5.50;99.90;;;;;;4879745;29;20127;-72
2023/03/26 06:36:39;;;;;;;22.23;3.10;;;5.50;99.90;;;;;;4862835;29;20092;-72
2023/03/26 06:39:04;;;;;;;20.83;2.57;;;5.50;99.90;;;;;;4878590;29;20864;-72
2023/03/26 06:41:35;;;;;;;13.47;2.50;;;5.60;99.90;;;;;;4861868;29;20481;-72
2023/03/26 06:44:00;;;;;;;17.10;2.50;;;5.60;99.90;;;;;;4877972;29;20051;-72
2023/03/26 06:46:28;;;;;;;18.45;2.60;;;5.60;99.90;;;;;;4877340;29;20132;-72
2023/03/26 06:48:54;;;;;;;16.63;3.00;;;5.70;99.90;;;;;;4882625;29;20413;-72
2023/03/26 06:51:20;;;;;;;16.40;3.20;;;5.80;99.90;;;;;;4877183;29;20045;-72
2023/03/26 06:53:45;;;;;;;12.80;2.30;;;5.80;99.90;;;;;;4860597;29;20053;-73
2023/03/26 06:56:11;;;;;;;14.40;2.23;;;5.90;99.90;;;;;;4862917;29;20044;-72
2023/03/26 06:58:37;;;;;;;17.30;2.63;;;5.90;99.90;;;;;;4878916;29;20116;-72
2023/03/26 07:01:02;;;;;;;21.90;2.13;;;6.00;99.90;;;;;;4878103;29;20548;-72
2023/03/26 07:03:28;;;;;;;13.20;2.40;;;6.10;99.90;;;;;;4863367;29;20056;-72
2023/03/26 07:05:54;;;;;;;15.20;2.13;;;6.20;99.90;;;;;;4862860;29;20122;-72
2023/03/26 07:08:19;;;;;;;17.20;2.53;;;6.20;99.90;;;;;;4863306;29;20048;-72
2023/03/26 07:10:46;;;;;;;21.80;3.00;;;6.30;99.90;;;;;;4861102;29;20048;-72
2023/03/26 07:13:11;;;;;;;23.73;2.97;;;6.40;99.90;;;;;;4876341;29;20048;-72
2023/03/26 07:15:37;;;;;;;16.43;2.50;;;6.40;99.90;;;;;;4862856;29;20139;-72
2023/03/26 07:18:03;;;;;;;12.70;2.47;;;6.40;99.90;;;;;;4878105;29;20520;-74
2023/03/26 07:20:29;;;;;;;24.87;2.77;;;6.50;99.90;;;;;;4879647;29;20048;-73
2023/03/26 07:22:55;;;;;;;12.93;2.40;;;6.50;99.90;;;;;;4863819;29;20041;-73
2023/03/26 07:25:21;;;;;;;12.75;2.15;;;6.50;99.90;;;;;;4865948;29;20041;-74
2023/03/26 07:28:05;;;;;;;16.03;2.40;;;6.60;99.90;;;;;;4881599;29;20500;-74
2023/03/26 07:30:50;;;;;;;20.73;2.97;;;6.60;99.90;;;;;;4879461;29;20253;-74
2023/03/26 07:33:31;;;;;;;23.65;4.00;;;6.60;99.90;;;;;;4868225;29;20080;-74
2023/03/26 07:36:06;;;;;;;16.30;2.30;;;6.60;99.90;;;;;;4857693;29;20085;-73
2023/03/26 07:38:48;;;;;;;16.33;2.53;;;6.70;99.90;;;;;;4861440;29;20044;-73
2023/03/26 07:41:36;;;;;;;15.48;2.42;;;6.70;99.90;;;;;;4856190;29;20052;-74
2023/03/26 07:44:30;;;;;;;15.07;2.28;;;6.80;99.90;;;;;;4874709;29;20048;-74
2023/03/26 07:46:59;;;;;;;20.88;2.47;;;6.90;99.90;;;;;;4866889;29;20041;-73
2023/03/26 07:49:25;;;;;;;18.35;2.08;;;6.90;99.90;;;;;;4875479;29;20509;-73
2023/03/26 07:51:52;;;;;;;10.90;2.10;;;6.90;99.90;;;;;;4864785;29;20539;-74
2023/03/26 07:54:17;;;;;;;14.77;2.25;;;7.00;99.90;;;;;;4870130;29;20049;-74
2023/03/26 07:56:58;;;;;;;15.33;2.13;;;7.10;99.90;;;;;;4873041;29;20351;-74
2023/03/26 07:59:35;;;;;;;11.32;2.42;;;7.10;99.90;;;;;;4890940;29;20148;-74
2023/03/26 08:02:22;;;;;;;17.15;2.67;;;7.10;99.90;;;;;;4873730;29;20048;-73
2023/03/26 08:05:17;;;;;;;20.27;2.85;;;7.20;99.90;;;;;;4877488;29;20056;-73
2023/03/26 08:08:07;;;;;;;13.57;2.03;;;7.20;99.90;;;;;;4879356;29;20060;-75
2023/03/26 08:10:57;;;;;;;14.18;2.42;;;7.30;99.90;;;;;;4871114;29;20084;-74
2023/03/26 08:13:29;;;;;;;18.33;2.20;;;7.30;99.90;;;;;;4877000;29;20119;-74
2023/03/26 08:16:18;;;;;;;13.95;1.95;;;7.30;99.90;;;;;;4862341;29;20454;-74
2023/03/26 08:18:58;;;;;;;12.55;1.88;;;7.50;99.90;;;;;;4871296;29;20052;-74
2023/03/26 08:21:38;;;;;;;16.67;2.38;;;7.50;99.90;;;;;;4860187;29;20047;-74
2023/03/26 08:24:19;;;;;;;17.35;1.90;;;7.60;99.90;;;;;;4861259;29;20041;-74
2023/03/26 08:27:12;;;;;;;10.52;1.88;;;7.70;99.90;;;;;;4860623;29;20047;-73
2023/03/26 08:30:01;;;;;;;11.50;1.95;;;7.70;99.90;;;;;;4862813;29;20045;-74
2023/03/26 08:32:27;;;;;;;19.67;3.08;;;7.80;99.90;;;;;;4859393;29;20040;-74
2023/03/26 08:34:53;;;;;;;16.63;2.72;;;7.90;99.90;;;;;;4859431;29;20044;-74
2023/03/26 08:37:19;;;;;;;14.23;3.07;;;7.90;99.90;;;;;;4874207;29;20798;-73
2023/03/26 08:39:45;;;;;;;16.65;2.05;;;7.90;99.90;;;;;;4871726;29;20040;-74
2023/03/26 08:42:29;;;;;;;10.60;2.30;;;8.00;99.90;;;;;;4859954;29;20036;-73
2023/03/26 08:45:18;;;;;;;10.82;1.77;;;8.00;99.90;;;;;;4887854;29;20100;-73
2023/03/26 08:48:14;;;;;;;16.60;2.20;;;8.00;99.90;;;;;;4869586;29;20104;-73
2023/03/26 08:51:06;;;;;;;10.57;1.83;;;8.10;99.90;;;;;;4871127;29;20054;-73
2023/03/26 08:53:54;;;;;;;11.43;2.15;;;8.10;99.90;;;;;;4872741;29;20045;-73
2023/03/26 08:56:38;;;;;;;11.95;1.92;;;8.20;99.90;;;;;;4852225;29;20045;-74
2023/03/26 08:59:23;;;;;;;16.50;1.90;;;8.30;99.90;;;;;;4862540;29;20103;-74
2023/03/26 09:02:16;;;;;;;15.88;2.00;;;8.40;99.90;;;;;;4875160;29;20049;-74
2023/03/26 09:05:17;;;;;;;17.77;2.42;;;8.40;99.90;;;;;;4873976;29;20044;-74
2023/03/26 09:08:02;;;;;;;14.82;2.05;;;8.40;99.90;;;;;;4859464;29;20048;-74
2023/03/26 09:11:05;;;;;;;11.98;1.55;;;8.40;99.90;;;;;;4859509;29;20053;-74
2023/03/26 09:13:56;;;;;;;12.63;2.30;;;8.40;99.90;;;;;;4873057;29;20056;-74
2023/03/26 09:16:27;;;;;;;14.70;1.67;;;8.50;99.90;;;;;;4856046;29;20421;-74
2023/03/26 09:19:20;;;;;;;11.63;1.63;;;8.50;99.90;;;;;;4854416;29;20040;-74
2023/03/26 09:21:56;;;;;;;13.25;1.90;;;8.50;99.90;;;;;;4849405;29;20060;-74
2023/03/26 09:24:37;;;;;;;12.63;1.85;;;8.60;99.90;;;;;;4873405;29;20040;-74
2023/03/26 09:27:18;;;;;;;13.63;1.88;;;8.80;99.90;;;;;;4870846;29;20032;-74
2023/03/26 09:30:21;;;;;;;11.45;1.63;;;8.90;99.90;;;;;;4857832;29;20049;-74
2023/03/26 09:33:02;;;;;;;10.40;1.52;;;9.00;99.90;;;;;;4875283;29;20047;-74
2023/03/26 09:36:12;;;;;;;14.10;1.80;;;9.10;99.90;;;;;;4876538;29;20453;-74
2023/03/26 09:38:53;;;;;;;11.90;1.77;;;9.10;99.90;;;;;;4825526;29;20053;-74
2023/03/26 09:41:40;;;;;;;10.23;2.35;;;9.20;99.90;;;;;;4858287;29;20111;-74
2023/03/26 09:44:22;;;;;;;13.25;2.13;;;9.30;99.90;;;;;;4869382;29;20048;-74
2023/03/26 09:47:25;;;;;;;15.98;2.00;;;9.40;99.90;;;;;;4860694;29;20041;-74
2023/03/26 09:50:32;;;;;;;14.07;2.33;;;9.50;99.90;;;;;;4871698;29;20045;-74
2023/03/26 09:53:21;;;;;;;9.23;1.47;;;9.50;99.90;;;;;;4852914;29;20285;-74
2023/03/26 09:56:03;;;;;;;13.63;2.07;;;9.50;99.90;;;;;;4859444;29;20297;-74
2023/03/26 09:59:01;;;;;;;10.93;1.52;;;9.40;99.90;;;;;;4879126;29;20901;-74
2023/03/26 10:01:49;;;;;;;16.73;2.20;;;9.40;99.90;;;;;;4876952;29;20482;-74
2023/03/26 10:05:03;;;;;;;10.50;1.27;;;9.40;99.90;;;;;;4862015;29;20809;-74
2023/03/26 10:07:44;;;;;;;9.43;1.80;;;9.40;99.90;;;;;;4862995;29;20554;-73
2023/03/26 10:10:28;;;;;;;11.33;1.40;;;9.60;99.90;;;;;;4856289;29;20352;-72
2023/03/26 10:13:02;;;;;;;12.30;1.30;;;9.60;98.50;;;;;;4863982;29;20297;-74
2023/03/26 10:15:40;;;;;;;8.98;1.73;;;9.70;97.50;;;;;;4850250;29;20297;-74
2023/03/26 10:18:45;;;;;;;10.13;1.67;;;9.80;94.10;;;;;;4853444;29;20084;-74
2023/03/26 10:21:42;;;;;;;13.13;1.83;;;9.90;90.20;;;;;;4846991;29;20353;-74
2023/03/26 10:24:40;;;;;;;8.30;1.50;;;9.90;91.00;;;;;;4848298;29;20306;-74
2023/03/26 10:27:18;;;;;;;10.73;1.70;;;9.80;91.80;;;;;;4841238;29;20288;-74
2023/03/26 10:30:05;;;;;;;12.97;1.40;;;9.70;85.90;;;;;;4841067;29;20801;-74
2023/03/26 10:33:06;;;;;;;11.98;1.73;;;9.70;87.30;;;;;;4842189;29;20985;-74
2023/03/26 10:35:45;;;;;;;10.93;1.58;;;9.70;86.50;;;;;;4820035;29;20049;-74
2023/03/26 10:38:20;;;;;;;14.67;2.10;;;9.60;87.80;;;;;;4857484;29;20402;-74
2023/03/26 10:41:04;;;;;;;14.50;2.33;;;9.70;88.30;;;;;;4846340;29;20922;-74
2023/03/26 10:44:15;;;;;;;13.80;2.07;;;9.70;87.00;;;;;;4840571;29;20543;-75
2023/03/26 10:47:09;;;;;;;14.63;1.90;;;9.80;88.70;;;;;;4851587;29;20320;-74
2023/03/26 10:49:55;;;;;;;18.53;3.53;;;9.90;85.30;;;;;;4859555;29;20730;-74
2023/03/26 10:52:24;;;;;;;22.00;8.30;;;10.10;86.80;;;;;;4823770;29;20361;-74
2023/03/26 10:54:54;;;;;;;38.43;12.53;;;10.10;83.00;;;;;;4857814;29;20288;-74
2023/03/26 10:57:28;;;;;;;82.47;26.70;;;10.10;81.50;;;;;;4858226;29;20328;-74
2023/03/26 10:59:59;;;;;;;149.50;42.37;;;10.00;80.00;;;;;;4841656;29;20288;-74
2023/03/26 11:02:37;;;;;;;32.97;9.10;;;10.00;79.00;;;;;;4841936;29;20282;-74
2023/03/26 11:05:36;;;;;;;24.03;7.70;;;9.90;81.40;;;;;;4875355;29;20328;-72
2023/03/26 11:08:09;;;;;;;12.03;2.27;;;9.90;80.40;;;;;;4880355;29;20798;-73
2023/03/26 11:10:49;;;;;;;11.13;2.07;;;9.90;79.70;;;;;;4878740;29;20289;-73
2023/03/26 11:13:41;;;;;;;8.70;1.70;;;9.90;78.00;;;;;;4862800;29;20705;-75
2023/03/26 11:16:40;;;;;;;11.40;1.70;;;9.90;81.40;;;;;;4877356;29;20358;-73
2023/03/26 11:19:23;;;;;;;10.53;1.90;;;10.00;78.60;;;;;;4874486;29;20320;-74
2023/03/26 11:22:13;;;;;;;10.73;1.40;;;10.00;75.50;;;;;;4880292;29;20301;-74
2023/03/26 11:24:55;;;;;;;12.57;2.20;;;10.00;76.90;;;;;;4871568;29;20312;-74
2023/03/26 11:27:37;;;;;;;9.33;1.50;;;9.80;74.20;;;;;;4868166;29;20301;-74
2023/03/26 11:31:01;;;;;;;10.43;1.50;;;9.80;74.20;;;;;;4880843;29;20296;-74
2023/03/26 11:33:33;;;;;;;12.83;1.37;;;9.80;72.00;;;;;;4763615;29;20446;-73
2023/03/26 11:36:07;;;;;;;12.13;1.43;;;9.80;75.60;;;;;;4784053;29;20323;-74
2023/03/26 11:38:42;;;;;;;6.37;1.47;;;9.80;74.40;;;;;;4828623;29;20300;-74
2023/03/26 11:41:13;;;;;;;;;;;9.80;76.20;;;;;;4875781;29;20285;-74
2023/03/26 11:43:39;;;;;;;9.13;1.67;;;9.70;71.60;;;;;;4872158;29;20387;-73
2023/03/26 11:46:19;;;;;;;11.80;1.70;;;9.70;72.50;;;;;;4872593;29;20401;-74
2023/03/26 11:48:49;;;;;;;9.30;1.43;;;9.70;71.00;;;;;;4860370;29;20148;-74
2023/03/26 11:51:34;;;;;;;11.60;1.40;;;9.80;72.30;;;;;;4874879;29;20293;-74
2023/03/26 11:54:01;;;;;;;12.93;2.10;;;9.90;71.60;;;;;;4877457;29;21024;-74
2023/03/26 11:56:35;;;;;;;9.17;1.60;;;9.90;72.00;;;;;;4857396;29;20554;-74
2023/03/26 11:59:13;;;;;;;8.07;1.53;;;9.90;70.90;;;;;;4877615;29;20297;-74
2023/03/26 12:01:49;;;;;;;9.30;1.60;;;9.90;71.60;;;;;;4878319;29;20682;-75
2023/03/26 12:04:45;;;;;;;11.37;1.60;;;9.90;70.80;;;;;;4875596;29;20345;-75
2023/03/26 12:07:32;;;;;;;12.30;1.55;;;10.20;73.20;;;;;;4839572;29;20300;-74
2023/03/26 12:10:00;;;;;;;8.77;1.27;;;10.40;69.80;;;;;;4877691;29;20148;-75
2023/03/26 12:12:32;;;;;;;12.17;1.67;;;10.40;66.20;;;;;;4876965;29;20808;-74
2023/03/26 12:14:58;;;;;;;7.87;1.70;;;10.40;68.40;;;;;;4862465;29;20629;-74
2023/03/26 12:17:30;;;;;;;8.30;1.17;;;10.30;67.90;;;;;;4878236;29;20292;-74
2023/03/26 12:19:57;;;;;;;10.73;1.20;;;10.30;66.20;;;;;;4873531;29;20301;-75
2023/03/26 12:22:37;;;;;;;7.27;1.40;;;10.20;66.10;;;;;;4860882;29;20285;-75
2023/03/26 12:25:21;;;;;;;6.80;1.10;;;10.20;66.90;;;;;;4874514;29;20384;-74
2023/03/26 12:27:48;;;;;;;11.27;1.40;;;10.20;65.40;;;;;;4863411;29;20818;-75
2023/03/26 12:30:26;;;;;;;11.10;2.17;;;10.20;66.90;;;;;;4860226;29;20409;-75
2023/03/26 12:32:59;;;;;;;8.17;1.23;;;10.20;66.70;;;;;;4856185;29;20289;-75
2023/03/26 12:35:28;;;;;;;12.60;1.70;;;10.20;65.80;;;;;;4859318;29;20395;-74
2023/03/26 12:38:32;;;;;;;10.33;1.70;;;10.20;67.60;;;;;;4858089;29;20360;-74
2023/03/26 12:41:08;;;;;;;5.67;1.13;;;10.30;65.40;;;;;;4875733;29;20305;-75
2023/03/26 12:43:45;;;;;;;13.73;1.63;;;10.30;64.20;;;;;;4878863;29;20323;-74
2023/03/26 12:46:31;;;;;;;12.60;1.33;;;10.20;67.00;;;;;;4881145;29;20280;-74
2023/03/26 12:48:58;;;;;;;;;;;10.20;63.90;;;;;;4860958;29;20293;-74
2023/03/26 12:51:37;;;;;;;12.67;1.63;;;10.10;64.60;;;;;;4859605;29;20076;-76
2023/03/26 12:54:33;;;;;;;8.93;1.10;;;10.10;64.30;;;;;;4859323;29;20339;-75
2023/03/26 12:57:33;;;;;;;10.10;1.37;;;10.10;64.40;;;;;;4878308;29;20293;-75
2023/03/26 13:00:11;;;;;;;8.00;1.30;;;10.20;61.90;;;;;;4873312;29;20049;-74
2023/03/26 13:03:01;;;;;;;8.50;1.40;;;10.10;64.10;;;;;;4860269;29;20340;-74
2023/03/26 13:05:39;;;;;;;12.80;2.07;;;10.00;59.20;;;;;;4873161;29;20367;-75
2023/03/26 13:08:32;;;;;;;6.90;1.27;;;9.80;61.80;;;;;;4879104;29;20380;-74
2023/03/26 13:11:28;;;;;;;12.37;1.70;;;9.70;63.70;;;;;;4891855;29;20293;-75
2023/03/26 13:14:18;;;;;;;5.73;1.00;;;9.80;63.40;;;;;;4874120;29;20289;-75
2023/03/26 13:16:47;;;;;;;10.17;1.83;;;9.80;62.70;;;;;;4858692;29;20284;-74
2023/03/26 13:19:38;;;;;;;9.60;1.53;;;9.70;63.10;;;;;;4875962;29;20293;-73
2023/03/26 13:22:18;;;;;;;11.03;1.83;;;9.70;60.20;;;;;;4872726;29;20317;-75
2023/03/26 13:25:08;;;;;;;10.70;1.67;;;9.50;63.00;;;;;;4862418;29;20320;-74
2023/03/26 13:27:47;;;;;;;8.88;1.13;;;9.40;62.70;;;;;;4858351;29;20285;-74